createdAt,value
2022-08-23T00:02:28.122Z,101493.12
2022-08-23T00:05:09.209Z,101489.17
2022-08-23T00:07:43.159Z,101492.34
2022-08-23T00:10:14.156Z,101491.00
2022-08-23T00:12:42.559Z,101486.78
2022-08-23T00:15:14.375Z,101484.16
2022-08-23T00:17:43.436Z,101483.12
2022-08-23T00:20:14.543Z,101482.86
2022-08-23T00:22:42.649Z,101479.66
2022-08-23T00:25:13.103Z,101487.53
2022-08-23T00:27:41.628Z,101494.37
2022-08-23T00:30:11.912Z,101483.05
2022-08-23T00:32:41.496Z,101486.45
2022-08-23T00:35:12.172Z,101488.29
2022-08-23T00:37:42.075Z,101479.88
2022-08-23T00:40:15.594Z,101486.72
2022-08-23T00:43:16.439Z,101480.66
2022-08-23T00:46:34.675Z,101478.02
2022-08-23T00:49:05.510Z,101483.55
2022-08-23T00:51:53.042Z,101487.47
2022-08-23T00:54:24.529Z,101483.52
2022-08-23T00:56:53.070Z,101485.61
2022-08-23T00:59:20.907Z,101486.91
2022-08-23T01:01:49.503Z,101494.01
2022-08-23T01:04:18.534Z,101488.78
2022-08-23T01:06:57.637Z,101482.70
2022-08-23T01:09:25.402Z,101496.10
2022-08-23T01:11:55.938Z,101498.72
2022-08-23T01:14:31.038Z,101493.20
2022-08-23T01:17:08.547Z,101495.80
2022-08-23T01:19:58.838Z,101487.41
2022-08-23T01:22:35.458Z,101490.80
2022-08-23T01:25:09.561Z,101495.52
2022-08-23T01:27:39.233Z,101500.22
2022-08-23T01:30:09.433Z,101489.70
2022-08-23T01:32:42.914Z,101497.84
2022-08-23T01:35:11.166Z,101509.90
2022-08-23T01:37:39.029Z,101503.07
2022-08-23T01:40:07.356Z,101500.71
2022-08-23T01:42:35.246Z,101508.82
2022-08-23T01:45:03.023Z,101508.82
2022-08-23T01:47:30.826Z,101514.84
2022-08-23T01:49:58.558Z,101519.84
2022-08-23T01:52:26.258Z,101508.79
2022-08-23T01:54:54.403Z,101506.93
2022-08-23T01:57:22.086Z,101511.11
2022-08-23T01:59:49.821Z,101509.54
2022-08-23T02:02:18.099Z,101511.37
2022-08-23T02:04:45.743Z,101507.41
2022-08-23T02:07:13.485Z,101506.86
2022-08-23T02:09:41.403Z,101516.28
2022-08-23T02:12:09.878Z,101525.17
2022-08-23T02:14:43.275Z,101526.19
2022-08-23T02:17:11.281Z,101516.97
2022-08-23T02:19:39.806Z,101528.25
2022-08-23T02:22:09.480Z,101524.29
2022-08-23T02:24:41.790Z,101525.30
2022-08-23T02:27:10.233Z,101522.66
2022-08-23T02:29:39.658Z,101524.48
2022-08-23T02:32:08.338Z,101532.04
2022-08-23T02:34:37.600Z,101527.07
2022-08-23T02:37:05.726Z,101535.48
2022-08-23T02:39:33.761Z,101532.59
2022-08-23T02:42:02.140Z,101536.78
2022-08-23T02:44:31.351Z,101530.99
2022-08-23T02:46:59.067Z,101530.70
2022-08-23T02:49:26.753Z,101536.78
2022-08-23T02:51:54.865Z,101534.88
2022-08-23T02:54:22.814Z,101534.88
2022-08-23T02:56:50.590Z,101543.84
2022-08-23T02:59:18.505Z,101542.24
2022-08-23T03:01:46.569Z,101542.24
2022-08-23T03:04:14.295Z,101541.46
2022-08-23T03:06:42.662Z,101534.88
2022-08-23T03:09:10.491Z,101530.14
2022-08-23T03:11:39.432Z,101549.05
2022-08-23T03:14:07.528Z,101549.05
2022-08-23T03:16:35.584Z,101549.86
2022-08-23T03:19:03.435Z,101548.29
2022-08-23T03:21:31.213Z,101541.69
2022-08-23T03:24:00.295Z,101552.97
2022-08-23T03:26:28.096Z,101552.70
2022-08-23T03:28:56.676Z,101549.50
2022-08-23T03:31:24.482Z,101553.98
2022-08-23T03:33:52.617Z,101549.77
2022-08-23T03:36:21.374Z,101553.42
2022-08-23T03:38:55.901Z,101553.16
2022-08-23T03:41:23.840Z,101552.34
2022-08-23T03:43:51.955Z,101561.77
2022-08-23T03:46:25.580Z,101562.52
2022-08-23T03:49:00.727Z,101564.64
2022-08-23T03:51:31.059Z,101570.43
2022-08-23T03:53:59.378Z,101568.83
2022-08-23T03:56:33.831Z,101572.23
2022-08-23T03:59:05.901Z,101573.24
2022-08-23T04:01:33.817Z,101571.38
2022-08-23T04:04:01.817Z,101573.96
2022-08-23T04:06:30.576Z,101578.15
2022-08-23T04:08:58.260Z,101579.20
2022-08-23T04:11:26.617Z,101580.47
2022-08-23T04:13:54.951Z,101580.20
2022-08-23T04:16:22.846Z,101589.85
2022-08-23T04:18:50.854Z,101587.20
2022-08-23T04:21:23.524Z,101597.67
2022-08-23T04:23:51.340Z,101598.16
2022-08-23T04:26:19.199Z,101596.30
2022-08-23T04:28:48.029Z,101606.27
2022-08-23T04:31:17.132Z,101596.79
2022-08-23T04:33:45.940Z,101600.97
2022-08-23T04:36:20.731Z,101608.55
2022-08-23T04:38:51.654Z,101603.88
2022-08-23T04:41:38.481Z,101603.88
2022-08-23T04:44:06.853Z,101611.20
2022-08-23T04:46:34.684Z,101609.15
2022-08-23T04:49:02.477Z,101611.20
2022-08-23T04:51:30.495Z,101612.81
2022-08-23T04:53:58.412Z,101610.20
2022-08-23T04:56:26.147Z,101613.07
2022-08-23T04:58:54.156Z,101620.16
2022-08-23T05:01:22.066Z,101624.94
2022-08-23T05:03:49.792Z,101627.00
2022-08-23T05:06:17.445Z,101624.62
2022-08-23T05:08:45.153Z,101631.74
2022-08-23T05:11:13.169Z,101637.53
2022-08-23T05:13:41.172Z,101629.20
2022-08-23T05:16:09.180Z,101638.91
2022-08-23T05:18:37.077Z,101635.02
2022-08-23T05:21:05.387Z,101637.37
2022-08-23T05:23:33.741Z,101631.91
2022-08-23T05:26:01.933Z,101632.20
2022-08-23T05:28:32.994Z,101641.91
2022-08-23T05:31:05.859Z,101621.21
2022-08-23T05:33:38.727Z,101631.22
2022-08-23T05:36:07.143Z,101630.20
2022-08-23T05:38:35.385Z,101636.58
2022-08-23T05:41:05.369Z,101631.84
2022-08-23T05:43:35.742Z,101634.03
2022-08-23T05:46:14.970Z,101634.88
2022-08-23T05:48:48.240Z,101639.10
2022-08-23T05:51:28.797Z,101635.99
2022-08-23T05:54:00.159Z,101644.13
2022-08-23T05:56:31.251Z,101647.30
2022-08-23T05:59:02.119Z,101648.68
2022-08-23T06:01:31.716Z,101653.72
2022-08-23T06:04:04.646Z,101656.37
2022-08-23T06:06:35.000Z,101664.28
2022-08-23T06:09:06.648Z,101666.44
2022-08-23T06:11:35.093Z,101663.63
2022-08-23T06:14:06.172Z,101668.92
2022-08-23T06:16:43.237Z,101668.20
2022-08-23T06:19:11.122Z,101673.50
2022-08-23T06:21:39.688Z,101673.04
2022-08-23T06:24:09.414Z,101674.16
2022-08-23T06:26:41.556Z,101667.62
2022-08-23T06:29:19.145Z,101678.99
2022-08-23T06:31:50.085Z,101677.98
2022-08-23T06:34:22.385Z,101673.83
2022-08-23T06:36:53.925Z,101685.99
2022-08-23T06:39:24.853Z,101687.07
2022-08-23T06:41:53.255Z,101684.98
2022-08-23T06:44:21.505Z,101687.40
2022-08-23T06:46:50.351Z,101690.63
2022-08-23T06:49:18.189Z,101696.72
2022-08-23T06:51:52.369Z,101695.45
2022-08-23T06:54:24.086Z,101691.78
2022-08-23T06:56:55.200Z,101693.35
2022-08-23T06:59:23.269Z,101697.86
2022-08-23T07:01:50.916Z,101690.51
2022-08-23T07:04:41.390Z,101697.11
2022-08-23T07:07:11.847Z,101700.28
2022-08-23T07:09:41.174Z,101700.84
2022-08-23T07:12:10.132Z,101697.66
2022-08-23T07:14:39.178Z,101699.79
2022-08-23T07:17:07.052Z,101711.40
2022-08-23T07:19:36.423Z,101698.74
2022-08-23T07:22:05.884Z,101708.52
2022-08-23T07:24:34.264Z,101710.62
2022-08-23T07:27:07.417Z,101702.21
2022-08-23T07:29:37.329Z,101705.61
2022-08-23T07:32:06.120Z,101714.84
2022-08-23T07:34:34.385Z,101715.39
2022-08-23T07:37:02.753Z,101712.25
2022-08-23T07:39:32.874Z,101715.91
2022-08-23T07:42:22.648Z,101707.51
2022-08-23T07:44:52.690Z,101721.24
2022-08-23T07:47:21.087Z,101721.73
2022-08-23T07:49:48.763Z,101718.86
2022-08-23T07:52:16.495Z,101723.34
2022-08-23T07:54:48.657Z,101727.03
2022-08-23T07:57:17.309Z,101734.39
2022-08-23T07:59:45.005Z,101730.17
2022-08-23T08:02:12.721Z,101737.56
2022-08-23T08:04:41.077Z,101738.84
2022-08-23T08:07:19.240Z,101744.66
2022-08-23T08:09:48.376Z,101736.45
2022-08-23T08:12:16.166Z,101734.87
2022-08-23T08:14:44.024Z,101732.46
2022-08-23T08:17:11.855Z,101728.73
2022-08-23T08:19:39.897Z,101744.52
2022-08-23T08:22:07.577Z,101742.89
2022-08-23T08:24:35.325Z,101745.51
2022-08-23T08:27:03.093Z,101746.23
2022-08-23T08:29:30.896Z,101750.38
2022-08-23T08:31:58.857Z,101740.57
2022-08-23T08:34:26.715Z,101741.32
2022-08-23T08:36:58.475Z,101742.89
2022-08-23T08:39:33.745Z,101741.55
2022-08-23T08:42:13.586Z,101740.18
2022-08-23T08:44:50.907Z,101735.34
2022-08-23T08:47:32.040Z,101737.43
2022-08-23T08:50:10.785Z,101741.38
2022-08-23T08:52:52.774Z,101742.34
2022-08-23T08:55:25.321Z,101744.66
2022-08-23T08:57:56.263Z,101752.51
2022-08-23T09:00:35.441Z,101757.48
2022-08-23T09:03:15.426Z,101748.94
2022-08-23T09:06:00.872Z,101747.83
2022-08-23T09:08:40.821Z,101753.81
2022-08-23T09:11:08.484Z,101757.51
2022-08-23T09:14:01.282Z,101758.03
2022-08-23T09:16:40.887Z,101751.91
2022-08-23T09:19:08.720Z,101750.51
2022-08-23T09:21:58.667Z,101750.70
2022-08-23T09:24:27.633Z,101749.85
2022-08-23T09:26:55.439Z,101747.96
2022-08-23T09:29:25.355Z,101753.16
2022-08-23T09:32:14.332Z,101748.09
2022-08-23T09:34:44.110Z,101751.91
2022-08-23T09:37:14.434Z,101756.04
2022-08-23T09:40:03.468Z,101755.19
2022-08-23T09:42:38.291Z,101745.27
2022-08-23T09:45:25.059Z,101751.52
2022-08-23T09:47:52.802Z,101740.80
2022-08-23T09:50:40.076Z,101744.43
2022-08-23T09:53:12.032Z,101743.80
2022-08-23T09:55:49.815Z,101742.37
2022-08-23T09:58:32.612Z,101742.53
2022-08-23T10:01:20.324Z,101746.36
2022-08-23T10:03:49.064Z,101749.95
2022-08-23T10:06:32.500Z,101744.85
2022-08-23T10:09:06.336Z,101744.76
2022-08-23T10:11:42.777Z,101742.76
2022-08-23T10:14:10.942Z,101734.45
2022-08-23T10:16:49.839Z,101742.04
2022-08-23T10:19:50.951Z,101736.88
2022-08-23T10:22:27.253Z,101732.52
2022-08-23T10:24:54.891Z,101732.63
2022-08-23T10:27:51.928Z,101730.17
2022-08-23T10:30:29.815Z,101723.44
2022-08-23T10:33:18.630Z,101729.16
2022-08-23T10:36:11.138Z,101727.49
2022-08-23T10:38:58.574Z,101719.97
2022-08-23T10:41:44.656Z,101728.60
2022-08-23T10:44:41.668Z,101715.59
2022-08-23T10:47:17.429Z,101714.90
2022-08-23T10:49:50.521Z,101711.11
2022-08-23T10:52:32.298Z,101704.89
2022-08-23T10:55:18.035Z,101709.77
2022-08-23T10:57:49.114Z,101703.78
2022-08-23T11:00:23.719Z,101700.74
2022-08-23T11:03:26.868Z,101693.19
2022-08-23T11:06:34.298Z,101697.14
2022-08-23T11:09:30.437Z,101697.21
2022-08-23T11:12:07.068Z,101695.73
2022-08-23T11:14:47.957Z,101688.18
2022-08-23T11:17:43.520Z,101688.05
2022-08-23T11:20:14.272Z,101690.08
2022-08-23T11:23:05.044Z,101680.37
2022-08-23T11:25:32.677Z,101675.40
2022-08-23T11:28:25.229Z,101677.36
2022-08-23T11:30:58.523Z,101683.34
2022-08-23T11:33:35.653Z,101681.61
2022-08-23T11:36:09.490Z,101680.14
2022-08-23T11:38:49.389Z,101679.98
2022-08-23T11:41:20.087Z,101677.69
2022-08-23T11:43:51.013Z,101678.90
2022-08-23T11:46:25.256Z,101676.61
2022-08-23T11:49:17.323Z,101678.05
2022-08-23T11:52:22.547Z,101665.36
2022-08-23T11:55:06.226Z,101673.44
2022-08-23T11:58:11.296Z,101666.86
2022-08-23T12:01:08.496Z,101664.34
2022-08-23T12:03:46.125Z,101664.77
2022-08-23T12:06:19.916Z,101659.34
2022-08-23T12:08:55.844Z,101653.88
2022-08-23T12:11:26.587Z,101644.17
2022-08-23T12:14:01.309Z,101651.63
2022-08-23T12:16:34.446Z,101642.47
2022-08-23T12:19:09.734Z,101632.73
2022-08-23T12:21:43.091Z,101640.37
2022-08-23T12:24:23.810Z,101641.55
2022-08-23T12:27:00.175Z,101636.68
2022-08-23T12:30:08.823Z,101641.59
2022-08-23T12:32:53.352Z,101642.80
2022-08-23T12:35:29.436Z,101641.06
2022-08-23T12:37:57.063Z,101642.04
2022-08-23T12:40:51.815Z,101641.06
2022-08-23T12:43:30.641Z,101637.76
2022-08-23T12:46:01.935Z,101637.20
2022-08-23T12:48:32.990Z,101638.15
2022-08-23T12:51:09.159Z,101632.30
2022-08-23T12:53:45.051Z,101641.29
2022-08-23T12:56:31.652Z,101638.19
2022-08-23T12:59:05.848Z,101639.00
2022-08-23T13:01:38.452Z,101634.69
2022-08-23T13:04:11.909Z,101639.00
2022-08-23T13:06:49.945Z,101639.36
2022-08-23T13:09:34.919Z,101626.61
2022-08-23T13:12:03.569Z,101627.79
2022-08-23T13:14:46.392Z,101631.09
2022-08-23T13:17:20.103Z,101622.12
2022-08-23T13:19:50.573Z,101627.59
2022-08-23T13:22:26.516Z,101624.22
2022-08-23T13:25:27.689Z,101613.49
2022-08-23T13:27:49.633Z,101619.71
2022-08-23T13:30:18.785Z,101616.41
2022-08-23T13:33:14.482Z,101616.96
2022-08-23T13:35:46.982Z,101616.57
2022-08-23T13:38:22.880Z,101608.16
2022-08-23T13:41:01.965Z,101604.80
2022-08-23T13:43:40.535Z,101609.08
2022-08-23T13:46:27.583Z,101601.46
2022-08-23T13:49:06.266Z,101603.59
2022-08-23T13:51:42.962Z,101605.78
2022-08-23T13:54:14.142Z,101604.21
2022-08-23T13:56:50.907Z,101611.44
2022-08-23T13:59:32.893Z,101602.21
2022-08-23T14:02:03.062Z,101602.02
2022-08-23T14:04:30.825Z,101602.02
2022-08-23T14:06:58.561Z,101606.30
2022-08-23T14:09:26.523Z,101604.73
2022-08-23T14:11:58.529Z,101596.95
2022-08-23T14:14:31.105Z,101604.38
2022-08-23T14:17:02.641Z,101598.16
2022-08-23T14:22:20.868Z,101598.91
2022-08-23T14:24:48.534Z,101601.46
2022-08-23T14:27:16.561Z,101591.52
2022-08-23T14:29:44.253Z,101590.93
2022-08-23T14:32:12.088Z,101590.38
2022-08-23T14:34:39.765Z,101592.50
2022-08-23T14:39:55.219Z,101587.63
2022-08-23T14:42:25.306Z,101591.52
2022-08-23T14:44:53.029Z,101584.10
2022-08-23T14:47:20.883Z,101584.33
2022-08-23T14:49:53.219Z,101591.16
2022-08-23T14:52:21.596Z,101589.59
2022-08-23T14:54:49.706Z,101579.26
2022-08-23T14:57:17.755Z,101587.11
2022-08-23T14:59:45.743Z,101588.28
2022-08-23T15:02:17.626Z,101586.13
2022-08-23T15:04:45.329Z,101587.30
2022-08-23T15:07:20.177Z,101591.23
2022-08-23T15:09:50.303Z,101585.77
2022-08-23T15:15:13.590Z,101589.30
2022-08-23T15:17:54.754Z,101591.26
2022-08-23T15:20:25.229Z,101585.83
2022-08-23T15:22:55.487Z,101580.37
2022-08-23T15:25:24.889Z,101585.05
2022-08-23T15:27:53.325Z,101582.73
2022-08-23T15:30:22.014Z,101580.17
2022-08-23T15:32:52.701Z,101573.34
2022-08-23T15:35:25.080Z,101577.07
2022-08-23T15:37:55.591Z,101573.14
2022-08-23T15:40:25.699Z,101568.66
2022-08-23T15:42:53.821Z,101572.95
2022-08-23T15:45:21.568Z,101567.09
2022-08-23T15:47:56.340Z,101564.34
2022-08-23T15:50:28.526Z,101564.97
2022-08-23T15:52:56.581Z,101574.71
2022-08-23T15:55:25.681Z,101575.27
2022-08-23T15:57:54.853Z,101568.80
2022-08-23T16:00:24.051Z,101571.54
2022-08-23T16:03:20.685Z,101566.02
2022-08-23T16:05:42.584Z,101566.41
2022-08-23T16:08:19.381Z,101567.59
2022-08-23T16:10:47.317Z,101563.27
2022-08-23T16:13:15.245Z,101566.96
2022-08-23T16:15:42.920Z,101560.33
2022-08-23T16:18:11.495Z,101549.57
2022-08-23T16:20:39.783Z,101550.71
2022-08-23T16:23:08.340Z,101554.60
2022-08-23T16:25:36.221Z,101563.79
2022-08-23T16:28:05.363Z,101555.19
2022-08-23T16:30:33.375Z,101551.70
2022-08-23T16:33:01.273Z,101560.49
2022-08-23T16:35:29.033Z,101556.96
2022-08-23T16:37:56.850Z,101547.12
2022-08-23T16:40:24.848Z,101561.83
2022-08-23T16:42:53.853Z,101566.93
2022-08-23T16:45:25.180Z,101563.20
2022-08-23T16:47:54.428Z,101568.53
2022-08-23T16:50:22.308Z,101557.74
2022-08-23T16:52:50.025Z,101563.66
2022-08-23T16:55:18.209Z,101563.89
2022-08-23T16:57:46.123Z,101561.73
2022-08-23T17:00:15.116Z,101562.74
2022-08-23T17:02:44.904Z,101567.81
2022-08-23T17:05:17.368Z,101565.30
2022-08-23T17:07:45.098Z,101575.11
2022-08-23T17:10:15.266Z,101570.82
2022-08-23T17:12:47.067Z,101573.77
2022-08-23T17:15:20.530Z,101561.21
2022-08-23T17:17:49.451Z,101569.41
2022-08-23T17:20:18.835Z,101566.31
2022-08-23T17:22:47.429Z,101567.09
2022-08-23T17:25:15.226Z,101571.61
2022-08-23T17:27:46.222Z,101572.16
2022-08-23T17:30:17.385Z,101568.44
2022-08-23T17:32:47.560Z,101580.73
2022-08-23T17:35:17.848Z,101589.52
2022-08-23T17:37:45.636Z,101593.62
2022-08-23T17:40:17.581Z,101588.48
2022-08-23T17:42:49.071Z,101589.63
2022-08-23T17:45:17.987Z,101593.32
2022-08-23T17:47:46.148Z,101591.95
2022-08-23T17:50:14.210Z,101600.68
2022-08-23T17:52:42.446Z,101599.89
2022-08-23T17:55:10.900Z,101599.24
2022-08-23T17:57:39.080Z,101608.76
2022-08-23T18:00:09.572Z,101607.71
2022-08-23T18:02:37.373Z,101614.31
2022-08-23T18:05:06.777Z,101623.83
2022-08-23T18:07:34.999Z,101618.50
2022-08-23T18:10:03.210Z,101627.79
2022-08-23T18:12:30.976Z,101628.54
2022-08-23T18:14:58.724Z,101623.41
2022-08-23T18:17:26.438Z,101635.05
2022-08-23T18:19:54.383Z,101639.49
2022-08-23T18:22:22.127Z,101641.52
2022-08-23T18:24:49.969Z,101635.60
2022-08-23T18:27:36.540Z,101643.52
2022-08-23T18:30:05.811Z,101650.05
2022-08-23T18:32:34.178Z,101648.98
2022-08-23T18:35:01.913Z,101644.63
2022-08-23T18:37:29.625Z,101656.79
2022-08-23T18:39:57.559Z,101662.19
2022-08-23T18:42:25.750Z,101665.81
2022-08-23T18:44:53.658Z,101663.00
2022-08-23T18:47:21.358Z,101660.75
2022-08-23T18:49:49.784Z,101666.70
2022-08-23T18:52:17.921Z,101672.88
2022-08-23T18:54:45.774Z,101678.27
2022-08-23T18:57:15.938Z,101672.36
2022-08-23T18:59:44.131Z,101677.72
2022-08-23T19:02:11.992Z,101680.53
2022-08-23T19:04:40.164Z,101688.87
2022-08-23T19:07:09.378Z,101699.86
2022-08-23T19:09:38.061Z,101702.11
2022-08-23T19:12:07.436Z,101703.55
2022-08-23T19:14:36.780Z,101703.42
2022-08-23T19:17:06.203Z,101711.73
2022-08-23T19:19:35.235Z,101713.16
2022-08-23T19:22:04.558Z,101717.74
2022-08-23T19:24:32.633Z,101721.30
2022-08-23T19:27:00.387Z,101729.35
2022-08-23T19:29:28.328Z,101724.97
2022-08-23T19:31:56.137Z,101730.89
2022-08-23T19:34:24.114Z,101735.83
2022-08-23T19:37:00.246Z,101729.05
2022-08-23T19:39:29.789Z,101728.34
2022-08-23T19:41:57.923Z,101733.47
2022-08-23T19:44:25.720Z,101734.13
2022-08-23T19:46:55.936Z,101734.75
2022-08-23T19:49:24.309Z,101736.68
2022-08-23T19:51:52.191Z,101744.16
2022-08-23T19:54:20.257Z,101744.82
2022-08-23T19:56:51.604Z,101748.58
2022-08-23T19:59:26.438Z,101750.22
2022-08-23T20:01:55.571Z,101752.96
2022-08-23T20:04:25.521Z,101746.75
2022-08-23T20:06:54.427Z,101751.30
2022-08-23T20:09:23.649Z,101747.34
2022-08-23T20:11:53.740Z,101756.69
2022-08-23T20:14:25.886Z,101759.89
2022-08-23T20:16:55.409Z,101764.21
2022-08-23T20:19:23.426Z,101763.49
2022-08-23T20:21:51.384Z,101765.68
2022-08-23T20:24:28.928Z,101768.10
2022-08-23T20:27:07.140Z,101762.84
2022-08-23T20:29:39.054Z,101764.47
2022-08-23T20:32:07.407Z,101768.23
2022-08-23T20:34:36.914Z,101768.52
2022-08-23T20:37:06.251Z,101772.84
2022-08-23T20:39:34.251Z,101767.61
2022-08-23T20:42:01.987Z,101777.13
2022-08-23T20:44:29.848Z,101777.45
2022-08-23T20:47:02.768Z,101776.18
2022-08-23T20:49:31.096Z,101771.44
2022-08-23T20:51:58.738Z,101774.38
2022-08-23T20:54:26.520Z,101781.05
2022-08-23T20:56:54.238Z,101782.66
2022-08-23T20:59:22.372Z,101782.95
2022-08-23T21:01:51.079Z,101786.41
2022-08-23T21:04:20.041Z,101783.83
2022-08-23T21:06:51.498Z,101784.09
2022-08-23T21:09:28.888Z,101789.69
2022-08-23T21:11:57.448Z,101784.91
2022-08-23T21:14:25.281Z,101779.38
2022-08-23T21:16:53.227Z,101784.95
2022-08-23T21:19:20.963Z,101787.10
2022-08-23T21:21:48.746Z,101780.23
2022-08-23T21:24:17.037Z,101792.13
2022-08-23T21:26:44.768Z,101788.73
2022-08-23T21:29:12.752Z,101781.64
2022-08-23T21:31:40.780Z,101784.02
2022-08-23T21:34:09.423Z,101786.94
2022-08-23T21:36:38.312Z,101784.06
2022-08-23T21:39:06.291Z,101784.32
2022-08-23T21:41:36.046Z,101778.27
2022-08-23T21:44:06.852Z,101783.34
2022-08-23T21:46:34.921Z,101784.38
2022-08-23T21:49:03.120Z,101782.30
2022-08-23T21:51:30.974Z,101783.08
2022-08-23T21:53:59.620Z,101780.49
2022-08-23T21:56:28.851Z,101783.66
2022-08-23T21:59:05.958Z,101778.63
2022-08-23T22:01:37.564Z,101781.58
2022-08-23T22:04:07.397Z,101780.23
2022-08-23T22:06:36.161Z,101770.20
2022-08-23T22:09:05.370Z,101775.75
2022-08-23T22:11:33.106Z,101775.49
2022-08-23T22:14:01.430Z,101774.97
2022-08-23T22:16:29.486Z,101774.45
2022-08-23T22:18:57.176Z,101773.95
2022-08-23T22:21:25.093Z,101771.57
2022-08-23T22:23:53.576Z,101776.05
2022-08-23T22:26:21.268Z,101773.95
2022-08-23T22:28:49.621Z,101762.09
2022-08-23T22:31:17.449Z,101768.16
2022-08-23T22:33:46.256Z,101765.78
2022-08-23T22:36:18.133Z,101761.82
2022-08-23T22:38:47.056Z,101767.35
2022-08-23T22:41:20.314Z,101767.88
2022-08-23T22:43:48.037Z,101772.91
2022-08-23T22:46:16.007Z,101761.82
2022-08-23T22:48:44.033Z,101769.45
2022-08-23T22:51:14.669Z,101770.26
2022-08-23T22:53:45.630Z,101762.34
2022-08-23T22:56:16.422Z,101769.18
2022-08-23T22:58:45.020Z,101764.44
2022-08-23T23:01:29.835Z,101761.01
2022-08-23T23:04:00.940Z,101761.56
2022-08-23T23:06:29.663Z,101767.61
2022-08-23T23:08:58.098Z,101751.23
2022-08-23T23:11:27.625Z,101755.16
2022-08-23T23:13:55.513Z,101755.94
2022-08-23T23:16:26.221Z,101753.55
2022-08-23T23:19:12.852Z,101748.55
2022-08-23T23:21:46.889Z,101749.82
2022-08-23T23:24:17.855Z,101747.47
2022-08-23T23:26:47.694Z,101744.03
2022-08-23T23:29:16.003Z,101749.04
2022-08-23T23:31:43.899Z,101754.56
2022-08-23T23:34:11.708Z,101751.91
2022-08-23T23:36:39.824Z,101747.44
2022-08-23T23:39:09.001Z,101752.96
2022-08-23T23:41:37.007Z,101752.41
2022-08-23T23:44:05.105Z,101745.84
2022-08-23T23:46:33.010Z,101754.23
2022-08-23T23:49:00.709Z,101755.28
2022-08-23T23:51:31.539Z,101753.71
2022-08-23T23:54:01.747Z,101748.97
2022-08-23T23:56:31.754Z,101749.98
2022-08-23T23:59:00.499Z,101749.20
